createdAt,value
2022-09-23T00:03:15.973Z,10.97
2022-09-23T00:07:14.878Z,10.83
2022-09-23T00:11:17.935Z,9.65
2022-09-23T00:15:02.893Z,10.38
2022-09-23T00:18:56.909Z,8.40
2022-09-23T00:22:35.665Z,8.30
2022-09-23T00:26:29.905Z,8.73
2022-09-23T00:30:15.896Z,25.52
2022-09-23T00:34:07.859Z,19.33
2022-09-23T00:37:45.982Z,17.20
2022-09-23T00:41:37.988Z,17.65
2022-09-23T00:45:24.898Z,17.10
2022-09-23T00:49:35.020Z,13.03
2022-09-23T00:53:29.898Z,12.23
2022-09-23T00:57:15.912Z,13.43
2022-09-23T01:01:15.998Z,11.93
2022-09-23T01:05:13.952Z,11.93
2022-09-23T01:09:00.929Z,12.75
2022-09-23T01:13:22.903Z,12.05
2022-09-23T01:17:24.058Z,12.77
2022-09-23T01:21:44.874Z,12.80
2022-09-23T01:25:44.911Z,11.55
2022-09-23T01:30:13.906Z,10.93
2022-09-23T01:34:27.021Z,10.80
2022-09-23T01:38:18.902Z,11.70
2022-09-23T01:42:14.001Z,11.45
2022-09-23T01:46:13.914Z,11.77
2022-09-23T01:50:42.936Z,11.47
2022-09-23T01:54:37.921Z,10.73
2022-09-23T01:58:44.898Z,11.18
2022-09-23T02:02:42.129Z,10.47
2022-09-23T02:06:37.885Z,10.77
2022-09-23T02:10:32.220Z,11.05
2022-09-23T02:14:46.953Z,10.38
2022-09-23T02:18:44.913Z,10.33
2022-09-23T02:23:02.926Z,11.98
2022-09-23T02:27:00.950Z,10.38
2022-09-23T02:30:57.929Z,9.97
2022-09-23T02:35:44.932Z,10.17
2022-09-23T02:39:55.924Z,9.70
2022-09-23T02:43:51.946Z,10.05
2022-09-23T02:47:42.919Z,10.37
2022-09-23T02:51:40.969Z,10.93
2022-09-23T02:55:30.378Z,12.88
2022-09-23T02:59:16.920Z,12.68
2022-09-23T03:03:34.932Z,12.57
2022-09-23T03:08:02.958Z,12.88
2022-09-23T03:12:01.007Z,11.25
2022-09-23T03:15:57.466Z,10.83
2022-09-23T03:20:04.047Z,11.05
2022-09-23T03:23:49.983Z,11.30
2022-09-23T03:27:44.975Z,11.13
2022-09-23T03:31:23.428Z,10.07
2022-09-23T03:35:16.983Z,10.27
2022-09-23T03:39:08.936Z,11.63
2022-09-23T03:43:02.986Z,9.37
2022-09-23T03:46:44.112Z,11.23
2022-09-23T03:50:35.912Z,10.38
2022-09-23T03:54:20.949Z,10.03
2022-09-23T03:58:13.045Z,10.80
2022-09-23T04:01:58.101Z,11.57
2022-09-23T04:05:49.970Z,12.45
2022-09-23T04:09:28.593Z,13.30
2022-09-23T04:13:19.938Z,13.05
2022-09-23T04:17:04.952Z,12.43
2022-09-23T04:20:50.054Z,12.70
2022-09-23T04:24:34.970Z,12.97
2022-09-23T04:28:26.952Z,12.07
2022-09-23T04:32:11.993Z,12.60
2022-09-23T04:35:58.110Z,11.83
2022-09-23T04:39:42.982Z,11.40
2022-09-23T04:43:34.941Z,11.63
2022-09-23T04:47:13.234Z,12.90
2022-09-23T04:51:05.014Z,12.03
2022-09-23T04:54:49.951Z,11.55
2022-09-23T04:58:42.113Z,11.55
2022-09-23T05:02:21.653Z,12.07
2022-09-23T05:06:13.063Z,12.52
2022-09-23T05:09:58.020Z,11.18
2022-09-23T05:13:43.082Z,12.10
2022-09-23T05:17:27.982Z,11.83
2022-09-23T05:21:22.349Z,10.93
2022-09-23T05:25:10.983Z,10.93
2022-09-23T05:28:56.039Z,12.13
2022-09-23T05:32:41.122Z,11.35
2022-09-23T05:36:38.311Z,11.00
2022-09-23T05:40:17.371Z,11.50
2022-09-23T05:44:10.029Z,11.43
2022-09-23T05:48:02.009Z,10.98
2022-09-23T05:51:41.135Z,12.25
2022-09-23T05:55:34.021Z,11.00
2022-09-23T05:59:19.016Z,11.18
2022-09-23T06:03:04.529Z,11.40
2022-09-23T06:06:59.267Z,12.15
2022-09-23T06:10:54.428Z,11.50
2022-09-23T06:14:46.072Z,15.52
2022-09-23T06:18:24.375Z,16.55
2022-09-23T06:22:16.027Z,13.10
2022-09-23T06:26:01.041Z,12.47
2022-09-23T06:29:46.073Z,12.43
2022-09-23T06:33:36.825Z,12.00
2022-09-23T06:37:29.025Z,11.43
2022-09-23T06:41:07.445Z,13.93
2022-09-23T06:44:59.015Z,12.30
2022-09-23T06:48:46.147Z,14.68
2022-09-23T06:52:38.044Z,14.37
2022-09-23T06:56:17.780Z,11.90
2022-09-23T07:00:10.022Z,12.65
2022-09-23T07:03:55.135Z,10.93
2022-09-23T07:07:40.242Z,12.18
2022-09-23T07:11:29.007Z,10.00
2022-09-23T07:15:23.034Z,10.90
2022-09-23T07:19:08.018Z,12.45
2022-09-23T07:22:57.142Z,15.53
2022-09-23T07:26:45.553Z,16.13
2022-09-23T07:30:37.043Z,13.00
2022-09-23T07:34:15.317Z,11.88
2022-09-23T07:38:07.066Z,11.23
2022-09-23T07:41:52.054Z,10.33
2022-09-23T07:45:37.106Z,11.57
2022-09-23T07:49:22.072Z,10.60
2022-09-23T07:53:15.132Z,9.98
2022-09-23T07:56:53.387Z,8.10
2022-09-23T08:00:45.078Z,8.93
2022-09-23T08:04:29.686Z,7.00
2022-09-23T08:08:21.206Z,4.72
2022-09-23T08:12:06.216Z,3.50
2022-09-23T08:16:01.092Z,4.50
2022-09-23T08:19:46.105Z,4.93
2022-09-23T08:23:41.131Z,4.07
2022-09-23T08:27:19.373Z,4.63
2022-09-23T08:31:11.141Z,3.20
2022-09-23T08:34:56.081Z,2.47
2022-09-23T08:38:41.170Z,1.70
2022-09-23T08:42:37.084Z,2.03
2022-09-23T08:46:35.253Z,1.63
2022-09-23T08:50:24.639Z,2.13
2022-09-23T08:54:16.089Z,1.80
2022-09-23T08:58:28.126Z,1.40
2022-09-23T09:02:29.150Z,1.15
2022-09-23T09:06:51.816Z,1.50
2022-09-23T09:10:56.150Z,1.00
2022-09-23T09:15:11.077Z,0.60
2022-09-23T09:19:08.127Z,1.17
2022-09-23T09:23:06.079Z,0.77
2022-09-23T09:26:46.195Z,0.60
2022-09-23T09:30:40.168Z,0.88
2022-09-23T09:34:50.109Z,0.77
2022-09-23T09:38:43.115Z,0.30
2022-09-23T09:42:28.349Z,0.40
2022-09-23T09:46:32.176Z,0.90
2022-09-23T09:50:17.122Z,0.40
2022-09-23T09:54:46.057Z,0.80
2022-09-23T09:58:41.131Z,0.50
2022-09-23T10:02:26.637Z,0.70
2022-09-23T10:06:48.060Z,0.60
2022-09-23T10:10:33.757Z,0.70
2022-09-23T10:14:31.051Z,0.80
2022-09-23T10:18:22.247Z,0.60
2022-09-23T10:22:18.079Z,0.68
2022-09-23T10:26:09.070Z,1.07
2022-09-23T10:30:01.095Z,0.60
2022-09-23T10:33:48.391Z,0.60
2022-09-23T10:37:53.086Z,0.63
2022-09-23T10:42:27.095Z,0.53
2022-09-23T10:46:46.090Z,0.43
2022-09-23T10:50:48.979Z,0.60
2022-09-23T10:55:16.108Z,0.60
2022-09-23T10:59:17.110Z,0.60
2022-09-23T11:03:20.159Z,0.60
2022-09-23T11:07:25.109Z,0.60
2022-09-23T11:11:51.136Z,0.70
2022-09-23T11:15:55.118Z,0.55
2022-09-23T11:20:35.112Z,0.50
2022-09-23T11:24:40.130Z,0.50
2022-09-23T11:29:05.140Z,0.80
2022-09-23T11:33:26.145Z,0.75
2022-09-23T11:37:26.151Z,0.70
2022-09-23T11:41:32.209Z,0.95
2022-09-23T11:45:31.164Z,0.70
2022-09-23T11:49:32.274Z,0.73
2022-09-23T11:53:32.750Z,0.50
2022-09-23T11:57:47.631Z,0.50
2022-09-23T12:01:37.493Z,0.60
2022-09-23T12:05:34.329Z,0.70
2022-09-23T12:14:21.212Z,0.40
2022-09-23T12:18:15.930Z,0.63
2022-09-23T12:22:34.301Z,0.67
2022-09-23T12:26:26.180Z,0.67
2022-09-23T12:30:27.219Z,0.80
2022-09-23T12:34:39.995Z,0.63
2022-09-23T12:38:41.172Z,0.70
2022-09-23T12:42:31.125Z,0.80
2022-09-23T12:46:35.181Z,0.60
2022-09-23T12:51:01.170Z,0.75
2022-09-23T12:54:48.256Z,0.80
2022-09-23T12:59:03.198Z,0.80
2022-09-23T13:03:19.179Z,0.70
2022-09-23T13:07:05.828Z,0.57
2022-09-23T13:11:08.185Z,0.55
2022-09-23T13:14:56.216Z,0.60
2022-09-23T13:19:07.235Z,0.57
2022-09-23T13:22:49.453Z,0.63
2022-09-23T13:26:46.270Z,0.50
2022-09-23T13:30:33.219Z,1.05
2022-09-23T13:34:29.214Z,0.70
2022-09-23T13:38:12.277Z,0.90
2022-09-23T13:42:07.261Z,0.60
2022-09-23T13:45:52.279Z,0.40
2022-09-23T13:49:49.373Z,0.70
2022-09-23T13:53:48.272Z,0.70
2022-09-23T13:57:41.255Z,0.82
2022-09-23T14:01:44.250Z,0.60
2022-09-23T14:05:42.529Z,1.00
2022-09-23T14:09:22.295Z,1.10
2022-09-23T14:13:14.335Z,0.75
2022-09-23T14:17:03.242Z,0.80
2022-09-23T14:20:57.288Z,1.07
2022-09-23T14:24:39.368Z,1.00
2022-09-23T14:28:34.398Z,0.57
2022-09-23T14:32:30.280Z,0.70
2022-09-23T14:36:41.250Z,0.80
2022-09-23T14:40:29.578Z,0.80
2022-09-23T14:44:28.264Z,0.80
2022-09-23T14:48:20.277Z,1.05
2022-09-23T14:52:01.413Z,1.38
2022-09-23T14:55:54.303Z,1.08
2022-09-23T14:59:42.277Z,1.50
2022-09-23T15:03:35.319Z,0.90
2022-09-23T15:07:20.354Z,0.88
2022-09-23T15:11:16.273Z,12.43
2022-09-23T15:15:03.275Z,8.10
2022-09-23T15:18:51.392Z,3.00
2022-09-23T15:22:36.290Z,1.90
2022-09-23T15:26:34.318Z,1.00
2022-09-23T15:30:15.332Z,1.10
2022-09-23T15:34:07.364Z,1.30
2022-09-23T15:37:53.279Z,2.13
2022-09-23T15:41:45.307Z,1.90
2022-09-23T15:45:42.329Z,2.67
2022-09-23T15:49:39.408Z,2.00
2022-09-23T15:53:28.324Z,2.30
2022-09-23T15:57:20.306Z,2.80
2022-09-23T16:00:59.829Z,1.95
2022-09-23T16:04:53.279Z,1.95
2022-09-23T16:08:39.370Z,0.90
2022-09-23T16:12:31.329Z,1.20
2022-09-23T16:16:29.595Z,1.10
2022-09-23T16:20:29.628Z,1.38
2022-09-23T16:24:27.368Z,1.80
2022-09-23T16:28:12.407Z,1.48
2022-09-23T16:31:57.345Z,1.10
2022-09-23T16:35:51.360Z,1.10
2022-09-23T16:39:36.344Z,1.23
2022-09-23T16:43:22.077Z,1.45
2022-09-23T16:47:07.458Z,1.48
2022-09-23T16:51:00.342Z,1.80
2022-09-23T16:54:38.822Z,1.08
2022-09-23T16:58:30.309Z,0.80
2022-09-23T17:02:35.409Z,1.20
2022-09-23T17:06:23.927Z,1.00
2022-09-23T17:10:09.442Z,1.33
2022-09-23T17:14:01.391Z,1.27
2022-09-23T17:17:46.392Z,1.48
2022-09-23T17:21:33.455Z,1.20
2022-09-23T17:25:18.406Z,1.70
2022-09-23T17:29:04.997Z,2.13
2022-09-23T17:32:50.346Z,2.15
2022-09-23T17:36:42.359Z,2.92
2022-09-23T17:40:20.768Z,3.25
2022-09-23T17:44:12.392Z,3.53
2022-09-23T17:48:01.390Z,3.78
2022-09-23T17:51:53.445Z,5.97
2022-09-23T17:55:31.798Z,5.45
2022-09-23T17:59:25.381Z,5.53
2022-09-23T18:03:10.355Z,5.87
2022-09-23T18:07:02.393Z,5.40
2022-09-23T18:10:40.657Z,6.30
2022-09-23T18:14:35.429Z,6.70
2022-09-23T18:18:20.384Z,6.03
2022-09-23T18:22:12.367Z,6.07
2022-09-23T18:25:50.711Z,6.45
2022-09-23T18:29:42.379Z,5.80
2022-09-23T18:33:28.421Z,5.87
2022-09-23T18:37:20.401Z,6.10
2022-09-23T18:41:00.271Z,6.30
2022-09-23T18:44:52.420Z,7.25
2022-09-23T18:48:57.373Z,7.35
2022-09-23T18:52:49.402Z,7.90
2022-09-23T18:56:54.421Z,7.47
2022-09-23T19:00:46.456Z,6.93
2022-09-23T19:04:27.639Z,8.65
2022-09-23T19:08:12.393Z,6.93
2022-09-23T19:11:58.398Z,7.33
2022-09-23T19:15:43.457Z,7.40
2022-09-23T19:19:42.418Z,7.00
2022-09-23T19:23:35.435Z,7.18
2022-09-23T19:27:20.398Z,6.53
2022-09-23T19:31:31.476Z,7.40
2022-09-23T19:35:23.421Z,7.15
2022-09-23T19:39:11.416Z,7.15
2022-09-23T19:43:03.415Z,6.80
2022-09-23T19:46:45.337Z,7.32
2022-09-23T19:50:41.426Z,7.45
2022-09-23T19:54:33.434Z,7.82
2022-09-23T19:58:25.458Z,7.37
2022-09-23T20:02:10.500Z,7.22
2022-09-23T20:06:03.523Z,8.85
2022-09-23T20:09:41.534Z,7.75
2022-09-23T20:13:39.440Z,8.07
2022-09-23T20:17:25.475Z,9.07
2022-09-23T20:21:21.442Z,7.80
2022-09-23T20:24:59.618Z,8.30
2022-09-23T20:28:51.430Z,8.33
2022-09-23T20:32:36.465Z,8.57
2022-09-23T20:36:28.450Z,8.80
2022-09-23T20:40:13.552Z,8.15
2022-09-23T20:44:02.437Z,7.30
2022-09-23T20:47:54.437Z,7.87
2022-09-23T20:51:42.464Z,8.13
2022-09-23T20:55:27.522Z,7.15
2022-09-23T20:59:12.426Z,7.43
2022-09-23T21:03:04.438Z,7.23
2022-09-23T21:06:49.460Z,7.32
2022-09-23T21:10:34.739Z,7.20
2022-09-23T21:14:19.459Z,7.13
2022-09-23T21:18:15.587Z,7.07
2022-09-23T21:22:02.479Z,5.95
2022-09-23T21:25:47.529Z,7.00
2022-09-23T21:29:32.456Z,6.80
2022-09-23T21:33:18.279Z,6.20
2022-09-23T21:37:04.442Z,7.13
2022-09-23T21:41:05.460Z,7.43
2022-09-23T21:44:50.459Z,7.70
2022-09-23T21:48:36.668Z,7.47
2022-09-23T21:52:21.482Z,7.93
2022-09-23T21:56:11.607Z,7.10
2022-09-23T21:59:56.574Z,8.40
2022-09-23T22:03:49.520Z,7.47
2022-09-23T22:07:34.504Z,8.30
2022-09-23T22:11:49.480Z,7.65
2022-09-23T22:15:27.752Z,8.13
2022-09-23T22:19:20.507Z,7.78
2022-09-23T22:23:05.491Z,8.17
2022-09-23T22:26:51.671Z,7.53
2022-09-23T22:30:54.543Z,7.93
2022-09-23T22:34:53.667Z,7.50
2022-09-23T22:38:45.486Z,7.50
2022-09-23T22:42:31.546Z,7.25
2022-09-23T22:46:28.567Z,8.18
2022-09-23T22:50:13.472Z,7.70
2022-09-23T22:54:05.502Z,7.70
2022-09-23T22:57:43.584Z,7.10
2022-09-23T23:01:37.644Z,8.38
2022-09-23T23:05:23.535Z,7.70
2022-09-23T23:09:26.559Z,7.80
2022-09-23T23:13:18.524Z,7.55
2022-09-23T23:17:03.517Z,8.43
2022-09-23T23:20:55.525Z,8.80
2022-09-23T23:24:33.611Z,8.77
2022-09-23T23:28:25.554Z,8.90
2022-09-23T23:32:12.608Z,8.93
2022-09-23T23:35:57.856Z,8.88
2022-09-23T23:39:49.553Z,7.93
2022-09-23T23:43:34.585Z,8.45
2022-09-23T23:47:27.538Z,8.63
2022-09-23T23:51:08.570Z,8.45
2022-09-23T23:55:00.537Z,8.17
2022-09-23T23:58:46.561Z,7.25
